VOZ670 YSSY-YSCB
Flight info
| Callsign | VOZ670 |
|---|---|
| Flight time | 0h 42m |
| Altitude | 16000 |
| Route | TESAT H65 CB |
| Aircraft | SF34/M-SDFGR/S |
Departure
| Time | 2026-05-04 09:01 |
|---|---|
| Airport | Sydney Kingsford Smith International Airport (YSSY) |
Arrival
| Time | 2026-05-04 09:44 |
|---|---|
| Airport | Canberra Airport (YSCB) |
| Time | Latitude | Longitude | Altitude | Speed | Heading |
|---|---|---|---|---|---|
| 2026-05-04 08:35 | -33.93633 | 151.18112 | 26 ft | 0 kts | 71° |
| 2026-05-04 08:52 | -33.93629 | 151.18115 | 26 ft | 2 kts | 8° |
| 2026-05-04 08:52 | -33.93631 | 151.18079 | 26 ft | 8 kts | 249° |
| 2026-05-04 08:52 | -33.93662 | 151.18051 | 27 ft | 5 kts | 189° |
| 2026-05-04 08:53 | -33.93745 | 151.18066 | 26 ft | 19 kts | 182° |
| 2026-05-04 08:54 | -33.94610 | 151.17904 | 25 ft | 29 kts | 169° |
| 2026-05-04 08:55 | -33.94801 | 151.17958 | 25 ft | 32 kts | 165° |
| 2026-05-04 08:55 | -33.94964 | 151.17997 | 26 ft | 25 kts | 166° |
| 2026-05-04 08:55 | -33.95096 | 151.18021 | 26 ft | 17 kts | 204° |
| 2026-05-04 08:55 | -33.95127 | 151.17942 | 26 ft | 13 kts | 251° |
| 2026-05-04 08:57 | -33.95144 | 151.17860 | 25 ft | 0 kts | 257° |
| 2026-05-04 09:01 | -33.94827 | 151.17660 | 27 ft | 73 kts | 343° |
| 2026-05-04 09:01 | -33.94145 | 151.17477 | 86 ft | 123 kts | 348° |
| 2026-05-04 09:01 | -33.93198 | 151.17154 | 404 ft | 152 kts | 343° |
| 2026-05-04 09:01 | -33.92180 | 151.16673 | 999 ft | 164 kts | 327° |
| 2026-05-04 09:02 | -33.91492 | 151.15549 | 1638 ft | 177 kts | 296° |
| 2026-05-04 09:02 | -33.91086 | 151.14082 | 2029 ft | 195 kts | 291° |
| 2026-05-04 09:02 | -33.90679 | 151.12588 | 2807 ft | 187 kts | 294° |
| 2026-05-04 09:02 | -33.90240 | 151.11022 | 3010 ft | 212 kts | 294° |
| 2026-05-04 09:03 | -33.89720 | 151.09253 | 3010 ft | 233 kts | 294° |
| 2026-05-04 09:03 | -33.89157 | 151.07372 | 3010 ft | 243 kts | 294° |
| 2026-05-04 09:03 | -33.88636 | 151.05617 | 3008 ft | 206 kts | 294° |
| 2026-05-04 09:03 | -33.88184 | 151.04038 | 3008 ft | 194 kts | 292° |
| 2026-05-04 09:04 | -33.87745 | 151.02521 | 3001 ft | 190 kts | 293° |
| 2026-05-04 09:04 | -33.87323 | 151.01019 | 3012 ft | 188 kts | 292° |
| 2026-05-04 09:04 | -33.86941 | 150.99616 | 3518 ft | 167 kts | 293° |
| 2026-05-04 09:04 | -33.86630 | 150.98367 | 4468 ft | 149 kts | 293° |
| 2026-05-04 09:05 | -33.86352 | 150.97149 | 5086 ft | 152 kts | 292° |
| 2026-05-04 09:05 | -33.86073 | 150.95916 | 5715 ft | 153 kts | 292° |
| 2026-05-04 09:05 | -33.85786 | 150.94685 | 6381 ft | 152 kts | 292° |
| 2026-05-04 09:05 | -33.85493 | 150.93458 | 6999 ft | 153 kts | 292° |
| 2026-05-04 09:06 | -33.85194 | 150.92222 | 7607 ft | 155 kts | 292° |
| 2026-05-04 09:07 | -33.82994 | 150.83253 | 11788 ft | 164 kts | 292° |
| 2026-05-04 09:08 | -33.82670 | 150.81956 | 12373 ft | 165 kts | 292° |
| 2026-05-04 09:08 | -33.82338 | 150.80629 | 12948 ft | 166 kts | 292° |
| 2026-05-04 09:08 | -33.82005 | 150.79295 | 13532 ft | 168 kts | 292° |
| 2026-05-04 09:08 | -33.81667 | 150.77943 | 14094 ft | 169 kts | 292° |
| 2026-05-04 09:09 | -33.81329 | 150.76586 | 14619 ft | 170 kts | 292° |
| 2026-05-04 09:09 | -33.80985 | 150.75218 | 15127 ft | 172 kts | 292° |
| 2026-05-04 09:09 | -33.80638 | 150.73841 | 15631 ft | 174 kts | 288° |
| 2026-05-04 09:09 | -33.80797 | 150.72329 | 15961 ft | 202 kts | 252° |
| 2026-05-04 09:10 | -33.81854 | 150.70995 | 16022 ft | 244 kts | 218° |
| 2026-05-04 09:10 | -33.83571 | 150.70316 | 16020 ft | 275 kts | 197° |
| 2026-05-04 09:10 | -33.85502 | 150.69918 | 16015 ft | 284 kts | 202° |
| 2026-05-04 09:10 | -33.87352 | 150.69084 | 16017 ft | 291 kts | 200° |
| 2026-05-04 09:11 | -33.89430 | 150.69024 | 16014 ft | 310 kts | 172° |
| 2026-05-04 09:11 | -33.91521 | 150.69754 | 16016 ft | 314 kts | 167° |
| 2026-05-04 09:11 | -33.93668 | 150.70236 | 16016 ft | 314 kts | 179° |
| 2026-05-04 09:11 | -33.95848 | 150.70394 | 16017 ft | 315 kts | 181° |
| 2026-05-04 09:12 | -33.98033 | 150.70632 | 16017 ft | 317 kts | 176° |
| 2026-05-04 09:12 | -34.00226 | 150.71017 | 16027 ft | 319 kts | 175° |
| 2026-05-04 09:14 | -34.16484 | 150.73371 | 16017 ft | 345 kts | 177° |
| 2026-05-04 09:14 | -34.18871 | 150.73704 | 16016 ft | 345 kts | 176° |
| 2026-05-04 09:14 | -34.21257 | 150.74067 | 16017 ft | 346 kts | 176° |
| 2026-05-04 09:14 | -34.23643 | 150.74407 | 16031 ft | 345 kts | 177° |
| 2026-05-04 09:15 | -34.26037 | 150.74749 | 16022 ft | 347 kts | 176° |
| 2026-05-04 09:15 | -34.28432 | 150.75110 | 16002 ft | 346 kts | 177° |
| 2026-05-04 09:15 | -34.30819 | 150.75449 | 16002 ft | 346 kts | 177° |
| 2026-05-04 09:15 | -34.33209 | 150.75799 | 16005 ft | 346 kts | 176° |
| 2026-05-04 09:17 | -34.52296 | 150.78584 | 15999 ft | 348 kts | 176° |
| 2026-05-04 09:18 | -34.54677 | 150.78940 | 16000 ft | 348 kts | 176° |
| 2026-05-04 09:18 | -34.57043 | 150.79021 | 15992 ft | 340 kts | 193° |
| 2026-05-04 09:18 | -34.59217 | 150.78080 | 15988 ft | 327 kts | 218° |
| 2026-05-04 09:18 | -34.60835 | 150.76255 | 15983 ft | 312 kts | 242° |
| 2026-05-04 09:19 | -34.61649 | 150.73912 | 15997 ft | 295 kts | 266° |
| 2026-05-04 09:19 | -34.61680 | 150.71513 | 16000 ft | 287 kts | 280° |
| 2026-05-04 09:19 | -34.61572 | 150.69097 | 16003 ft | 291 kts | 270° |
| 2026-05-04 09:19 | -34.62268 | 150.66706 | 16003 ft | 308 kts | 244° |
| 2026-05-04 09:20 | -34.63777 | 150.64835 | 15998 ft | 324 kts | 221° |
| 2026-05-04 09:20 | -34.65614 | 150.63289 | 16001 ft | 316 kts | 230° |
| 2026-05-04 09:20 | -34.66855 | 150.61185 | 16010 ft | 303 kts | 250° |
| 2026-05-04 09:20 | -34.67857 | 150.58919 | 16006 ft | 307 kts | 245° |
| 2026-05-04 09:21 | -34.69122 | 150.56798 | 16003 ft | 312 kts | 238° |
| 2026-05-04 09:21 | -34.70493 | 150.54750 | 16000 ft | 312 kts | 239° |
| 2026-05-04 09:21 | -34.71772 | 150.52637 | 16004 ft | 310 kts | 242° |
| 2026-05-04 09:21 | -34.72998 | 150.50475 | 16010 ft | 311 kts | 242° |
| 2026-05-04 09:22 | -34.74291 | 150.48367 | 16015 ft | 312 kts | 240° |
| 2026-05-04 09:22 | -34.75583 | 150.46243 | 16011 ft | 311 kts | 242° |
| 2026-05-04 09:22 | -34.76834 | 150.44094 | 16008 ft | 312 kts | 242° |
| 2026-05-04 09:22 | -34.78126 | 150.41968 | 16009 ft | 312 kts | 240° |
| 2026-05-04 09:23 | -34.79403 | 150.39844 | 16016 ft | 310 kts | 242° |
| 2026-05-04 09:23 | -34.80658 | 150.37719 | 16020 ft | 310 kts | 242° |
| 2026-05-04 09:23 | -34.81929 | 150.35595 | 16014 ft | 312 kts | 241° |
| 2026-05-04 09:23 | -34.83208 | 150.33462 | 16011 ft | 312 kts | 242° |
| 2026-05-04 09:25 | -34.92063 | 150.18554 | 16019 ft | 310 kts | 241° |
| 2026-05-04 09:25 | -34.93347 | 150.16439 | 16023 ft | 311 kts | 241° |
| 2026-05-04 09:26 | -34.94607 | 150.14307 | 16027 ft | 310 kts | 242° |
| 2026-05-04 09:26 | -34.95862 | 150.12170 | 16028 ft | 311 kts | 242° |
| 2026-05-04 09:26 | -34.97212 | 150.10092 | 16029 ft | 313 kts | 238° |
| 2026-05-04 09:26 | -34.98596 | 150.08041 | 16028 ft | 313 kts | 239° |
| 2026-05-04 09:27 | -34.99967 | 150.05979 | 16023 ft | 313 kts | 239° |
| 2026-05-04 09:27 | -35.01338 | 150.03914 | 16026 ft | 314 kts | 239° |
| 2026-05-04 09:27 | -35.02735 | 150.01853 | 16026 ft | 314 kts | 238° |
| 2026-05-04 09:27 | -35.04112 | 149.99788 | 16030 ft | 314 kts | 239° |
| 2026-05-04 09:28 | -35.05482 | 149.97717 | 16028 ft | 314 kts | 238° |
| 2026-05-04 09:28 | -35.06872 | 149.95657 | 16021 ft | 314 kts | 238° |
| 2026-05-04 09:28 | -35.08244 | 149.93591 | 16033 ft | 314 kts | 239° |
| 2026-05-04 09:28 | -35.09577 | 149.91592 | 16642 ft | 294 kts | 239° |
| 2026-05-04 09:29 | -35.10885 | 149.89629 | 16566 ft | 306 kts | 239° |
| 2026-05-04 09:29 | -35.12248 | 149.87556 | 16182 ft | 320 kts | 239° |
| 2026-05-04 09:29 | -35.13682 | 149.85429 | 15811 ft | 326 kts | 238° |
| 2026-05-04 09:29 | -35.15118 | 149.83267 | 15450 ft | 328 kts | 239° |
| 2026-05-04 09:30 | -35.16524 | 149.81153 | 15094 ft | 303 kts | 239° |
| 2026-05-04 09:30 | -35.17782 | 149.79291 | 14725 ft | 266 kts | 240° |
| 2026-05-04 09:30 | -35.18869 | 149.77629 | 14340 ft | 236 kts | 242° |
| 2026-05-04 09:30 | -35.19847 | 149.76157 | 13964 ft | 211 kts | 243° |
| 2026-05-04 09:31 | -35.20758 | 149.74762 | 13439 ft | 225 kts | 243° |
| 2026-05-04 09:31 | -35.21798 | 149.73168 | 12921 ft | 251 kts | 240° |
| 2026-05-04 09:31 | -35.22941 | 149.71490 | 12421 ft | 261 kts | 240° |
| 2026-05-04 09:31 | -35.24051 | 149.69809 | 11926 ft | 246 kts | 241° |
| 2026-05-04 09:32 | -35.25076 | 149.68271 | 11420 ft | 221 kts | 242° |
| 2026-05-04 09:32 | -35.26006 | 149.66866 | 10908 ft | 199 kts | 243° |
| 2026-05-04 09:34 | -35.31480 | 149.58568 | 7651 ft | 171 kts | 243° |
| 2026-05-04 09:34 | -35.32209 | 149.57472 | 7577 ft | 162 kts | 245° |
| 2026-05-04 09:34 | -35.32916 | 149.56389 | 7566 ft | 163 kts | 244° |
| 2026-05-04 09:34 | -35.33633 | 149.55304 | 7556 ft | 165 kts | 244° |
| 2026-05-04 09:35 | -35.34365 | 149.54185 | 7507 ft | 170 kts | 243° |
| 2026-05-04 09:35 | -35.35112 | 149.53059 | 7510 ft | 170 kts | 243° |
| 2026-05-04 09:35 | -35.35852 | 149.51935 | 7511 ft | 169 kts | 244° |
| 2026-05-04 09:35 | -35.36585 | 149.50820 | 7515 ft | 166 kts | 243° |
| 2026-05-04 09:37 | -35.40648 | 149.42686 | 6413 ft | 147 kts | 250° |
| 2026-05-04 09:37 | -35.41155 | 149.41619 | 6411 ft | 144 kts | 250° |
| 2026-05-04 09:38 | -35.41659 | 149.40562 | 6406 ft | 143 kts | 250° |
| 2026-05-04 09:38 | -35.42162 | 149.39508 | 6402 ft | 143 kts | 251° |
| 2026-05-04 09:38 | -35.42654 | 149.38457 | 6395 ft | 139 kts | 256° |
| 2026-05-04 09:38 | -35.42699 | 149.37371 | 6405 ft | 127 kts | 287° |
| 2026-05-04 09:39 | -35.42315 | 149.36420 | 6392 ft | 126 kts | 308° |
| 2026-05-04 09:39 | -35.41681 | 149.35655 | 6212 ft | 134 kts | 310° |
| 2026-05-04 09:39 | -35.41016 | 149.34836 | 6035 ft | 135 kts | 310° |
| 2026-05-04 09:39 | -35.40377 | 149.33987 | 5704 ft | 138 kts | 307° |
| 2026-05-04 09:40 | -35.39772 | 149.33093 | 5341 ft | 135 kts | 305° |
| 2026-05-04 09:40 | -35.39186 | 149.32212 | 5157 ft | 134 kts | 306° |
| 2026-05-04 09:40 | -35.38616 | 149.31308 | 4936 ft | 134 kts | 304° |
| 2026-05-04 09:40 | -35.38052 | 149.30403 | 4683 ft | 134 kts | 303° |
| 2026-05-04 09:41 | -35.37453 | 149.29520 | 4497 ft | 136 kts | 306° |
| 2026-05-04 09:42 | -35.33154 | 149.23038 | 2778 ft | 147 kts | 310° |
| 2026-05-04 09:43 | -35.32508 | 149.22057 | 2501 ft | 140 kts | 313° |
| 2026-05-04 09:43 | -35.31945 | 149.21223 | 2251 ft | 114 kts | 313° |
| 2026-05-04 09:43 | -35.31422 | 149.20470 | 2080 ft | 121 kts | 315° |
| 2026-05-04 09:43 | -35.30895 | 149.19720 | 1885 ft | 109 kts | 315° |
| 2026-05-04 09:44 | -35.30490 | 149.19134 | 1875 ft | 62 kts | 310° |
| 2026-05-04 09:44 | -35.30323 | 149.18888 | 1873 ft | 24 kts | 311° |
| 2026-05-04 09:44 | -35.30228 | 149.18738 | 1875 ft | 12 kts | 297° |
| 2026-05-04 09:46 | -35.30469 | 149.18892 | 1875 ft | 3 kts | 211° |
| 2026-05-04 09:46 | -35.30501 | 149.18864 | 1875 ft | 7 kts | 217° |
| 2026-05-04 09:46 | -35.30512 | 149.18852 | 1875 ft | 0 kts | 220° |